sensor_id;sensor_type;location;lat;lon;timestamp;temperature;humidity
74171;DHT22;62526;50.948;6.590;2023-02-19T00:01:09;10.60;99.90
74171;DHT22;62526;50.948;6.590;2023-02-19T00:03:36;10.60;99.90
74171;DHT22;62526;50.948;6.590;2023-02-19T00:06:04;10.60;99.90
74171;DHT22;62526;50.948;6.590;2023-02-19T00:08:31;10.60;99.90
74171;DHT22;62526;50.948;6.590;2023-02-19T00:11:13;10.60;99.90
74171;DHT22;62526;50.948;6.590;2023-02-19T00:13:40;10.60;99.90
74171;DHT22;62526;50.948;6.590;2023-02-19T00:16:06;10.60;99.90
74171;DHT22;62526;50.948;6.590;2023-02-19T00:18:33;10.60;99.90
74171;DHT22;62526;50.948;6.590;2023-02-19T00:20:59;10.60;99.90
74171;DHT22;62526;50.948;6.590;2023-02-19T00:23:26;10.60;99.90
74171;DHT22;62526;50.948;6.590;2023-02-19T00:25:53;10.60;99.90
74171;DHT22;62526;50.948;6.590;2023-02-19T00:28:19;10.60;99.90
74171;DHT22;62526;50.948;6.590;2023-02-19T00:30:46;10.70;99.90
74171;DHT22;62526;50.948;6.590;2023-02-19T00:33:12;10.70;99.90
74171;DHT22;62526;50.948;6.590;2023-02-19T00:35:39;10.70;99.90
74171;DHT22;62526;50.948;6.590;2023-02-19T00:38:05;10.80;99.90
74171;DHT22;62526;50.948;6.590;2023-02-19T00:40:32;10.80;99.90
74171;DHT22;62526;50.948;6.590;2023-02-19T00:42:59;10.80;99.90
74171;DHT22;62526;50.948;6.590;2023-02-19T00:45:25;10.70;99.90
74171;DHT22;62526;50.948;6.590;2023-02-19T00:47:52;10.70;99.90
74171;DHT22;62526;50.948;6.590;2023-02-19T00:50:18;10.60;99.90
74171;DHT22;62526;50.948;6.590;2023-02-19T00:52:45;10.60;99.90
74171;DHT22;62526;50.948;6.590;2023-02-19T00:55:12;10.60;99.90
74171;DHT22;62526;50.948;6.590;2023-02-19T00:57:39;10.60;99.90
74171;DHT22;62526;50.948;6.590;2023-02-19T01:00:06;10.60;99.90
74171;DHT22;62526;50.948;6.590;2023-02-19T01:02:33;10.60;99.90
74171;DHT22;62526;50.948;6.590;2023-02-19T01:04:59;10.70;99.90
74171;DHT22;62526;50.948;6.590;2023-02-19T01:07:26;10.60;99.90
74171;DHT22;62526;50.948;6.590;2023-02-19T01:09:53;10.60;99.90
74171;DHT22;62526;50.948;6.590;2023-02-19T01:12:19;10.60;99.90
74171;DHT22;62526;50.948;6.590;2023-02-19T01:14:46;10.70;99.90
74171;DHT22;62526;50.948;6.590;2023-02-19T01:17:12;10.60;99.90
74171;DHT22;62526;50.948;6.590;2023-02-19T01:19:39;10.60;99.90
74171;DHT22;62526;50.948;6.590;2023-02-19T01:22:06;10.70;99.90
74171;DHT22;62526;50.948;6.590;2023-02-19T01:24:32;10.60;99.90
74171;DHT22;62526;50.948;6.590;2023-02-19T01:26:59;10.60;99.90
74171;DHT22;62526;50.948;6.590;2023-02-19T01:29:25;10.70;99.90
74171;DHT22;62526;50.948;6.590;2023-02-19T01:31:52;10.60;99.90
74171;DHT22;62526;50.948;6.590;2023-02-19T01:34:19;10.70;99.90
74171;DHT22;62526;50.948;6.590;2023-02-19T01:36:46;10.70;99.90
74171;DHT22;62526;50.948;6.590;2023-02-19T01:39:13;10.80;99.90
74171;DHT22;62526;50.948;6.590;2023-02-19T01:41:40;10.70;99.90
74171;DHT22;62526;50.948;6.590;2023-02-19T01:44:56;10.70;99.90
74171;DHT22;62526;50.948;6.590;2023-02-19T01:46:34;10.70;99.90
74171;DHT22;62526;50.948;6.590;2023-02-19T01:49:03;10.70;99.90
74171;DHT22;62526;50.948;6.590;2023-02-19T01:54:08;10.80;99.90
74171;DHT22;62526;50.948;6.590;2023-02-19T01:56:34;10.80;99.90
74171;DHT22;62526;50.948;6.590;2023-02-19T01:59:01;10.80;99.90
74171;DHT22;62526;50.948;6.590;2023-02-19T02:01:27;10.80;99.90
74171;DHT22;62526;50.948;6.590;2023-02-19T02:03:54;10.80;99.90
74171;DHT22;62526;50.948;6.590;2023-02-19T02:06:29;10.80;99.90
74171;DHT22;62526;50.948;6.590;2023-02-19T02:08:56;10.80;99.90
74171;DHT22;62526;50.948;6.590;2023-02-19T02:11:28;10.80;99.90
74171;DHT22;62526;50.948;6.590;2023-02-19T02:13:55;10.80;99.90
74171;DHT22;62526;50.948;6.590;2023-02-19T02:16:46;10.80;99.90
74171;DHT22;62526;50.948;6.590;2023-02-19T02:22:26;10.70;99.90
74171;DHT22;62526;50.948;6.590;2023-02-19T02:25:32;10.70;99.90
74171;DHT22;62526;50.948;6.590;2023-02-19T02:30:42;10.60;99.90
74171;DHT22;62526;50.948;6.590;2023-02-19T02:33:20;10.60;99.90
74171;DHT22;62526;50.948;6.590;2023-02-19T02:35:50;10.50;99.90
74171;DHT22;62526;50.948;6.590;2023-02-19T02:38:15;10.50;99.90
74171;DHT22;62526;50.948;6.590;2023-02-19T02:40:43;10.30;99.90
74171;DHT22;62526;50.948;6.590;2023-02-19T02:43:09;10.30;99.90
74171;DHT22;62526;50.948;6.590;2023-02-19T02:45:35;10.30;99.90
74171;DHT22;62526;50.948;6.590;2023-02-19T02:48:09;10.30;99.90
74171;DHT22;62526;50.948;6.590;2023-02-19T02:53:47;10.30;99.90
74171;DHT22;62526;50.948;6.590;2023-02-19T02:56:17;10.30;99.90
74171;DHT22;62526;50.948;6.590;2023-02-19T02:58:44;10.30;99.90
74171;DHT22;62526;50.948;6.590;2023-02-19T03:01:14;10.30;99.90
74171;DHT22;62526;50.948;6.590;2023-02-19T03:03:44;10.40;99.90
74171;DHT22;62526;50.948;6.590;2023-02-19T03:06:11;10.40;99.90
74171;DHT22;62526;50.948;6.590;2023-02-19T03:08:47;10.40;99.90
74171;DHT22;62526;50.948;6.590;2023-02-19T03:11:15;10.40;99.90
74171;DHT22;62526;50.948;6.590;2023-02-19T03:13:47;10.40;99.90
74171;DHT22;62526;50.948;6.590;2023-02-19T03:16:22;10.40;99.90
74171;DHT22;62526;50.948;6.590;2023-02-19T03:18:53;10.30;99.90
74171;DHT22;62526;50.948;6.590;2023-02-19T03:21:25;10.40;99.90
74171;DHT22;62526;50.948;6.590;2023-02-19T03:23:52;10.40;99.90
74171;DHT22;62526;50.948;6.590;2023-02-19T03:26:25;10.30;99.90
74171;DHT22;62526;50.948;6.590;2023-02-19T03:28:51;10.30;99.90
74171;DHT22;62526;50.948;6.590;2023-02-19T03:31:25;10.30;99.90
74171;DHT22;62526;50.948;6.590;2023-02-19T03:33:53;10.30;99.90
74171;DHT22;62526;50.948;6.590;2023-02-19T03:36:18;10.40;99.90
74171;DHT22;62526;50.948;6.590;2023-02-19T03:38:50;10.40;99.90
74171;DHT22;62526;50.948;6.590;2023-02-19T03:41:20;10.40;99.90
74171;DHT22;62526;50.948;6.590;2023-02-19T03:44:17;10.30;99.90
74171;DHT22;62526;50.948;6.590;2023-02-19T03:46:45;10.30;99.90
74171;DHT22;62526;50.948;6.590;2023-02-19T03:49:15;10.30;99.90
74171;DHT22;62526;50.948;6.590;2023-02-19T03:51:44;10.40;99.90
74171;DHT22;62526;50.948;6.590;2023-02-19T03:54:17;10.40;99.90
74171;DHT22;62526;50.948;6.590;2023-02-19T03:56:48;10.40;99.90
74171;DHT22;62526;50.948;6.590;2023-02-19T03:59:34;10.30;99.90
74171;DHT22;62526;50.948;6.590;2023-02-19T04:02:01;10.30;99.90
74171;DHT22;62526;50.948;6.590;2023-02-19T04:04:31;10.30;99.90
74171;DHT22;62526;50.948;6.590;2023-02-19T04:06:57;10.30;99.90
74171;DHT22;62526;50.948;6.590;2023-02-19T04:09:26;10.30;99.90
74171;DHT22;62526;50.948;6.590;2023-02-19T04:11:52;10.30;99.90
74171;DHT22;62526;50.948;6.590;2023-02-19T04:14:22;10.30;99.90
74171;DHT22;62526;50.948;6.590;2023-02-19T04:16:48;10.30;99.90
74171;DHT22;62526;50.948;6.590;2023-02-19T04:19:14;10.30;99.90
74171;DHT22;62526;50.948;6.590;2023-02-19T04:21:41;10.30;99.90
74171;DHT22;62526;50.948;6.590;2023-02-19T04:24:13;10.30;99.90
74171;DHT22;62526;50.948;6.590;2023-02-19T04:26:34;10.30;99.90
74171;DHT22;62526;50.948;6.590;2023-02-19T04:29:01;10.30;99.90
74171;DHT22;62526;50.948;6.590;2023-02-19T04:31:28;10.30;99.90
74171;DHT22;62526;50.948;6.590;2023-02-19T04:33:54;10.20;99.90
74171;DHT22;62526;50.948;6.590;2023-02-19T04:36:21;10.10;99.90
74171;DHT22;62526;50.948;6.590;2023-02-19T04:38:47;10.10;99.90
74171;DHT22;62526;50.948;6.590;2023-02-19T04:41:14;10.00;99.90
74171;DHT22;62526;50.948;6.590;2023-02-19T04:43:41;9.90;99.90
74171;DHT22;62526;50.948;6.590;2023-02-19T04:46:08;9.90;99.90
74171;DHT22;62526;50.948;6.590;2023-02-19T04:48:34;9.80;99.90
74171;DHT22;62526;50.948;6.590;2023-02-19T04:51:13;9.70;99.90
74171;DHT22;62526;50.948;6.590;2023-02-19T04:53:40;9.90;99.90
74171;DHT22;62526;50.948;6.590;2023-02-19T04:56:07;9.90;99.90
74171;DHT22;62526;50.948;6.590;2023-02-19T04:58:33;9.90;99.90
74171;DHT22;62526;50.948;6.590;2023-02-19T05:01:00;9.90;99.90
74171;DHT22;62526;50.948;6.590;2023-02-19T05:03:26;10.00;99.90
74171;DHT22;62526;50.948;6.590;2023-02-19T05:05:53;10.00;99.90
74171;DHT22;62526;50.948;6.590;2023-02-19T05:08:19;10.00;99.90
74171;DHT22;62526;50.948;6.590;2023-02-19T05:10:46;10.00;99.90
74171;DHT22;62526;50.948;6.590;2023-02-19T05:13:13;10.00;99.90
74171;DHT22;62526;50.948;6.590;2023-02-19T05:15:39;10.00;99.90
74171;DHT22;62526;50.948;6.590;2023-02-19T05:18:06;9.90;99.90
74171;DHT22;62526;50.948;6.590;2023-02-19T05:20:32;9.90;99.90
74171;DHT22;62526;50.948;6.590;2023-02-19T05:22:59;9.90;99.90
74171;DHT22;62526;50.948;6.590;2023-02-19T05:25:25;9.80;99.90
74171;DHT22;62526;50.948;6.590;2023-02-19T05:27:52;9.80;99.90
74171;DHT22;62526;50.948;6.590;2023-02-19T05:30:19;9.80;99.90
74171;DHT22;62526;50.948;6.590;2023-02-19T05:32:45;9.70;99.90
74171;DHT22;62526;50.948;6.590;2023-02-19T05:35:12;9.70;99.90
74171;DHT22;62526;50.948;6.590;2023-02-19T05:37:39;9.70;99.90
74171;DHT22;62526;50.948;6.590;2023-02-19T05:40:05;9.70;99.90
74171;DHT22;62526;50.948;6.590;2023-02-19T05:42:32;9.70;99.90
74171;DHT22;62526;50.948;6.590;2023-02-19T05:44:58;9.70;99.90
74171;DHT22;62526;50.948;6.590;2023-02-19T05:47:25;9.70;99.90
74171;DHT22;62526;50.948;6.590;2023-02-19T05:49:52;9.70;99.90
74171;DHT22;62526;50.948;6.590;2023-02-19T05:52:18;9.70;99.90
74171;DHT22;62526;50.948;6.590;2023-02-19T05:54:45;9.60;99.90
74171;DHT22;62526;50.948;6.590;2023-02-19T05:57:11;9.70;99.90
74171;DHT22;62526;50.948;6.590;2023-02-19T05:59:38;9.70;99.90
74171;DHT22;62526;50.948;6.590;2023-02-19T06:02:05;9.70;99.90
74171;DHT22;62526;50.948;6.590;2023-02-19T06:04:31;9.70;99.90
74171;DHT22;62526;50.948;6.590;2023-02-19T06:06:58;9.70;99.90
74171;DHT22;62526;50.948;6.590;2023-02-19T06:09:24;9.70;99.90
74171;DHT22;62526;50.948;6.590;2023-02-19T06:11:51;9.70;99.90
74171;DHT22;62526;50.948;6.590;2023-02-19T06:14:18;9.70;99.90
74171;DHT22;62526;50.948;6.590;2023-02-19T06:16:44;9.60;99.90
74171;DHT22;62526;50.948;6.590;2023-02-19T06:19:11;9.70;99.90
74171;DHT22;62526;50.948;6.590;2023-02-19T06:21:37;9.60;99.90
74171;DHT22;62526;50.948;6.590;2023-02-19T06:24:06;9.60;99.90
74171;DHT22;62526;50.948;6.590;2023-02-19T06:26:32;9.60;99.90
74171;DHT22;62526;50.948;6.590;2023-02-19T06:28:58;9.60;99.90
74171;DHT22;62526;50.948;6.590;2023-02-19T06:31:25;9.60;99.90
74171;DHT22;62526;50.948;6.590;2023-02-19T06:33:51;9.60;99.90
74171;DHT22;62526;50.948;6.590;2023-02-19T06:36:19;9.60;99.90
74171;DHT22;62526;50.948;6.590;2023-02-19T06:38:45;9.60;99.90
74171;DHT22;62526;50.948;6.590;2023-02-19T06:41:11;9.60;99.90
74171;DHT22;62526;50.948;6.590;2023-02-19T06:43:38;9.50;99.90
74171;DHT22;62526;50.948;6.590;2023-02-19T06:46:05;9.50;99.90
74171;DHT22;62526;50.948;6.590;2023-02-19T06:48:32;9.50;99.90
74171;DHT22;62526;50.948;6.590;2023-02-19T06:53:44;9.50;99.90
74171;DHT22;62526;50.948;6.590;2023-02-19T06:56:24;9.50;99.90
74171;DHT22;62526;50.948;6.590;2023-02-19T06:58:50;9.60;99.90
74171;DHT22;62526;50.948;6.590;2023-02-19T07:01:16;9.40;99.90
74171;DHT22;62526;50.948;6.590;2023-02-19T07:03:43;9.40;99.90
74171;DHT22;62526;50.948;6.590;2023-02-19T07:06:09;9.50;99.90
74171;DHT22;62526;50.948;6.590;2023-02-19T07:08:36;9.60;99.90
74171;DHT22;62526;50.948;6.590;2023-02-19T07:11:02;9.60;99.90
74171;DHT22;62526;50.948;6.590;2023-02-19T07:13:29;9.50;99.90
74171;DHT22;62526;50.948;6.590;2023-02-19T07:15:57;9.50;99.90
74171;DHT22;62526;50.948;6.590;2023-02-19T07:18:23;9.60;99.90
74171;DHT22;62526;50.948;6.590;2023-02-19T07:20:50;9.60;99.90
74171;DHT22;62526;50.948;6.590;2023-02-19T07:23:16;9.60;99.90
74171;DHT22;62526;50.948;6.590;2023-02-19T07:25:43;9.60;99.90
74171;DHT22;62526;50.948;6.590;2023-02-19T07:28:10;9.70;99.90
74171;DHT22;62526;50.948;6.590;2023-02-19T07:30:36;9.70;99.90
74171;DHT22;62526;50.948;6.590;2023-02-19T07:33:03;9.70;99.90
74171;DHT22;62526;50.948;6.590;2023-02-19T07:35:29;9.70;99.90
74171;DHT22;62526;50.948;6.590;2023-02-19T07:37:56;9.70;99.90
74171;DHT22;62526;50.948;6.590;2023-02-19T07:40:23;9.70;99.90
74171;DHT22;62526;50.948;6.590;2023-02-19T07:42:49;9.60;99.90
74171;DHT22;62526;50.948;6.590;2023-02-19T07:45:16;9.60;99.90
74171;DHT22;62526;50.948;6.590;2023-02-19T07:47:42;9.70;99.90
74171;DHT22;62526;50.948;6.590;2023-02-19T07:50:12;9.80;99.90
74171;DHT22;62526;50.948;6.590;2023-02-19T07:52:39;9.70;99.90
74171;DHT22;62526;50.948;6.590;2023-02-19T07:55:06;9.80;99.90
74171;DHT22;62526;50.948;6.590;2023-02-19T07:57:33;9.80;99.90
74171;DHT22;62526;50.948;6.590;2023-02-19T08:00:00;9.80;99.90
74171;DHT22;62526;50.948;6.590;2023-02-19T08:02:31;9.80;99.90
74171;DHT22;62526;50.948;6.590;2023-02-19T08:05:08;9.80;99.90
74171;DHT22;62526;50.948;6.590;2023-02-19T08:07:35;9.80;99.90
74171;DHT22;62526;50.948;6.590;2023-02-19T08:10:06;9.80;99.90
74171;DHT22;62526;50.948;6.590;2023-02-19T08:12:39;9.80;99.90
74171;DHT22;62526;50.948;6.590;2023-02-19T08:15:11;9.80;99.90
74171;DHT22;62526;50.948;6.590;2023-02-19T08:17:45;9.80;99.90
74171;DHT22;62526;50.948;6.590;2023-02-19T08:20:11;9.80;99.90
74171;DHT22;62526;50.948;6.590;2023-02-19T08:22:38;9.80;99.90
74171;DHT22;62526;50.948;6.590;2023-02-19T08:25:05;9.80;99.90
74171;DHT22;62526;50.948;6.590;2023-02-19T08:27:32;9.80;99.90
74171;DHT22;62526;50.948;6.590;2023-02-19T08:29:59;9.80;99.90
74171;DHT22;62526;50.948;6.590;2023-02-19T08:32:25;9.80;99.90
74171;DHT22;62526;50.948;6.590;2023-02-19T08:34:52;9.80;99.90
74171;DHT22;62526;50.948;6.590;2023-02-19T08:37:18;9.80;99.90
74171;DHT22;62526;50.948;6.590;2023-02-19T08:39:46;9.80;99.90
74171;DHT22;62526;50.948;6.590;2023-02-19T08:42:20;9.90;99.90
74171;DHT22;62526;50.948;6.590;2023-02-19T08:44:46;9.90;99.90
74171;DHT22;62526;50.948;6.590;2023-02-19T08:47:13;10.00;99.90
74171;DHT22;62526;50.948;6.590;2023-02-19T08:49:39;10.00;99.90
74171;DHT22;62526;50.948;6.590;2023-02-19T08:52:06;10.00;99.90
74171;DHT22;62526;50.948;6.590;2023-02-19T08:54:33;10.00;99.90
74171;DHT22;62526;50.948;6.590;2023-02-19T08:56:59;10.10;99.90
74171;DHT22;62526;50.948;6.590;2023-02-19T08:59:27;10.10;99.90
74171;DHT22;62526;50.948;6.590;2023-02-19T09:01:52;10.10;99.90
74171;DHT22;62526;50.948;6.590;2023-02-19T09:04:19;10.10;99.90
74171;DHT22;62526;50.948;6.590;2023-02-19T09:06:46;10.10;99.90
74171;DHT22;62526;50.948;6.590;2023-02-19T09:09:19;10.10;99.90
74171;DHT22;62526;50.948;6.590;2023-02-19T09:11:49;10.10;99.90
74171;DHT22;62526;50.948;6.590;2023-02-19T09:14:16;10.20;99.90
74171;DHT22;62526;50.948;6.590;2023-02-19T09:16:42;10.20;99.90
74171;DHT22;62526;50.948;6.590;2023-02-19T09:19:11;10.00;99.90
74171;DHT22;62526;50.948;6.590;2023-02-19T09:21:38;10.00;99.90
74171;DHT22;62526;50.948;6.590;2023-02-19T09:24:07;10.00;99.90
74171;DHT22;62526;50.948;6.590;2023-02-19T09:26:31;9.90;99.90
74171;DHT22;62526;50.948;6.590;2023-02-19T09:28:58;9.90;99.90
74171;DHT22;62526;50.948;6.590;2023-02-19T09:31:25;10.00;99.90
74171;DHT22;62526;50.948;6.590;2023-02-19T09:33:51;10.00;99.90
74171;DHT22;62526;50.948;6.590;2023-02-19T09:36:18;10.10;99.90
74171;DHT22;62526;50.948;6.590;2023-02-19T09:38:45;10.10;99.90
74171;DHT22;62526;50.948;6.590;2023-02-19T09:41:14;10.10;99.90
74171;DHT22;62526;50.948;6.590;2023-02-19T09:43:40;10.00;99.90
74171;DHT22;62526;50.948;6.590;2023-02-19T09:46:13;10.10;99.90
74171;DHT22;62526;50.948;6.590;2023-02-19T09:48:35;10.10;99.90
74171;DHT22;62526;50.948;6.590;2023-02-19T09:51:02;10.20;99.90
74171;DHT22;62526;50.948;6.590;2023-02-19T09:53:30;10.20;99.90
74171;DHT22;62526;50.948;6.590;2023-02-19T09:55:56;10.30;99.90
74171;DHT22;62526;50.948;6.590;2023-02-19T09:58:32;10.30;99.90
74171;DHT22;62526;50.948;6.590;2023-02-19T10:00:59;10.40;99.90
74171;DHT22;62526;50.948;6.590;2023-02-19T10:03:34;10.30;99.90
74171;DHT22;62526;50.948;6.590;2023-02-19T10:06:04;10.10;99.90
74171;DHT22;62526;50.948;6.590;2023-02-19T10:08:29;10.00;99.90
74171;DHT22;62526;50.948;6.590;2023-02-19T10:10:54;10.10;99.90
74171;DHT22;62526;50.948;6.590;2023-02-19T10:13:23;9.90;99.90
74171;DHT22;62526;50.948;6.590;2023-02-19T10:15:50;10.00;99.90
74171;DHT22;62526;50.948;6.590;2023-02-19T10:18:25;10.10;99.90
74171;DHT22;62526;50.948;6.590;2023-02-19T10:20:51;10.00;99.90
74171;DHT22;62526;50.948;6.590;2023-02-19T10:23:17;9.90;99.90
74171;DHT22;62526;50.948;6.590;2023-02-19T10:25:47;10.00;99.90
74171;DHT22;62526;50.948;6.590;2023-02-19T10:28:14;10.00;99.90
74171;DHT22;62526;50.948;6.590;2023-02-19T10:30:39;10.10;99.90
74171;DHT22;62526;50.948;6.590;2023-02-19T10:33:10;10.30;99.90
74171;DHT22;62526;50.948;6.590;2023-02-19T10:35:37;10.40;99.90
74171;DHT22;62526;50.948;6.590;2023-02-19T10:38:03;10.60;99.90
74171;DHT22;62526;50.948;6.590;2023-02-19T10:40:30;10.60;99.90
74171;DHT22;62526;50.948;6.590;2023-02-19T10:42:57;10.60;99.90
74171;DHT22;62526;50.948;6.590;2023-02-19T10:45:39;10.70;99.90
74171;DHT22;62526;50.948;6.590;2023-02-19T10:48:06;10.70;99.90
74171;DHT22;62526;50.948;6.590;2023-02-19T10:53:20;10.50;99.90
74171;DHT22;62526;50.948;6.590;2023-02-19T10:55:46;10.60;99.90
74171;DHT22;62526;50.948;6.590;2023-02-19T10:58:24;10.60;99.90
74171;DHT22;62526;50.948;6.590;2023-02-19T11:01:09;10.70;99.90
74171;DHT22;62526;50.948;6.590;2023-02-19T11:03:34;10.70;99.90
74171;DHT22;62526;50.948;6.590;2023-02-19T11:06:02;10.60;99.90
74171;DHT22;62526;50.948;6.590;2023-02-19T11:08:28;10.60;99.90
74171;DHT22;62526;50.948;6.590;2023-02-19T11:10:54;10.50;99.90
74171;DHT22;62526;50.948;6.590;2023-02-19T11:13:36;10.50;99.90
74171;DHT22;62526;50.948;6.590;2023-02-19T11:16:03;10.50;99.90
74171;DHT22;62526;50.948;6.590;2023-02-19T11:18:30;10.50;99.90
74171;DHT22;62526;50.948;6.590;2023-02-19T11:20:58;10.50;99.90
74171;DHT22;62526;50.948;6.590;2023-02-19T11:23:29;10.40;99.90
74171;DHT22;62526;50.948;6.590;2023-02-19T11:25:55;10.30;99.90
74171;DHT22;62526;50.948;6.590;2023-02-19T11:28:30;10.10;99.90
74171;DHT22;62526;50.948;6.590;2023-02-19T11:30:49;10.20;99.90
74171;DHT22;62526;50.948;6.590;2023-02-19T11:33:23;10.30;99.90
74171;DHT22;62526;50.948;6.590;2023-02-19T11:35:47;10.40;99.90
74171;DHT22;62526;50.948;6.590;2023-02-19T11:38:14;10.40;99.90
74171;DHT22;62526;50.948;6.590;2023-02-19T11:41:04;10.50;99.90
74171;DHT22;62526;50.948;6.590;2023-02-19T11:43:32;10.50;99.90
74171;DHT22;62526;50.948;6.590;2023-02-19T11:46:00;10.60;99.90
74171;DHT22;62526;50.948;6.590;2023-02-19T11:49:00;10.50;99.90
74171;DHT22;62526;50.948;6.590;2023-02-19T11:53:54;10.60;99.90
74171;DHT22;62526;50.948;6.590;2023-02-19T11:56:18;10.80;99.90
74171;DHT22;62526;50.948;6.590;2023-02-19T11:59:10;11.00;99.90
74171;DHT22;62526;50.948;6.590;2023-02-19T12:01:58;11.30;99.90
74171;DHT22;62526;50.948;6.590;2023-02-19T12:07:10;11.70;99.90
74171;DHT22;62526;50.948;6.590;2023-02-19T12:09:42;11.80;99.90
74171;DHT22;62526;50.948;6.590;2023-02-19T12:12:10;11.80;99.90
74171;DHT22;62526;50.948;6.590;2023-02-19T12:15:01;11.90;99.90
74171;DHT22;62526;50.948;6.590;2023-02-19T12:22:54;12.50;99.90
74171;DHT22;62526;50.948;6.590;2023-02-19T12:25:29;12.40;99.90
74171;DHT22;62526;50.948;6.590;2023-02-19T12:28:11;12.20;99.90
74171;DHT22;62526;50.948;6.590;2023-02-19T12:30:42;11.90;99.90
74171;DHT22;62526;50.948;6.590;2023-02-19T12:33:12;11.90;99.90
74171;DHT22;62526;50.948;6.590;2023-02-19T12:35:41;11.60;99.90
74171;DHT22;62526;50.948;6.590;2023-02-19T12:38:20;11.40;99.90
74171;DHT22;62526;50.948;6.590;2023-02-19T12:41:00;11.50;99.90
74171;DHT22;62526;50.948;6.590;2023-02-19T12:43:23;11.50;99.90
74171;DHT22;62526;50.948;6.590;2023-02-19T12:45:54;11.40;99.90
74171;DHT22;62526;50.948;6.590;2023-02-19T12:48:24;11.30;99.90
74171;DHT22;62526;50.948;6.590;2023-02-19T12:50:48;11.10;99.90
74171;DHT22;62526;50.948;6.590;2023-02-19T12:55:47;10.90;99.90
74171;DHT22;62526;50.948;6.590;2023-02-19T12:58:28;10.70;99.90
74171;DHT22;62526;50.948;6.590;2023-02-19T13:00:54;10.40;99.90
74171;DHT22;62526;50.948;6.590;2023-02-19T13:03:30;10.40;99.90
74171;DHT22;62526;50.948;6.590;2023-02-19T13:06:04;10.30;99.90
74171;DHT22;62526;50.948;6.590;2023-02-19T13:08:47;10.20;99.90
74171;DHT22;62526;50.948;6.590;2023-02-19T13:11:19;10.10;99.90
74171;DHT22;62526;50.948;6.590;2023-02-19T13:13:48;10.00;99.90
74171;DHT22;62526;50.948;6.590;2023-02-19T13:16:14;9.60;99.90
74171;DHT22;62526;50.948;6.590;2023-02-19T13:21:30;9.70;99.90
74171;DHT22;62526;50.948;6.590;2023-02-19T13:24:02;9.70;99.90
74171;DHT22;62526;50.948;6.590;2023-02-19T13:26:53;9.70;99.90
74171;DHT22;62526;50.948;6.590;2023-02-19T13:29:39;9.70;99.90
74171;DHT22;62526;50.948;6.590;2023-02-19T13:32:12;9.80;99.90
74171;DHT22;62526;50.948;6.590;2023-02-19T13:35:01;9.90;99.90
74171;DHT22;62526;50.948;6.590;2023-02-19T14:19:57;10.30;99.90
74171;DHT22;62526;50.948;6.590;2023-02-19T14:53:02;10.00;99.90
74171;DHT22;62526;50.948;6.590;2023-02-19T14:55:56;10.00;99.90
74171;DHT22;62526;50.948;6.590;2023-02-19T15:23:30;9.90;99.90
74171;DHT22;62526;50.948;6.590;2023-02-19T15:28:49;9.80;99.90
74171;DHT22;62526;50.948;6.590;2023-02-19T15:31:23;9.90;99.90
74171;DHT22;62526;50.948;6.590;2023-02-19T15:34:00;9.90;99.90
74171;DHT22;62526;50.948;6.590;2023-02-19T15:36:32;9.90;99.90
74171;DHT22;62526;50.948;6.590;2023-02-19T15:47:37;9.90;99.90
74171;DHT22;62526;50.948;6.590;2023-02-19T15:53:07;10.00;99.90
74171;DHT22;62526;50.948;6.590;2023-02-19T15:55:34;9.90;99.90
74171;DHT22;62526;50.948;6.590;2023-02-19T15:58:12;9.90;99.90
74171;DHT22;62526;50.948;6.590;2023-02-19T16:00:39;9.90;99.90
74171;DHT22;62526;50.948;6.590;2023-02-19T16:03:04;10.00;99.90
74171;DHT22;62526;50.948;6.590;2023-02-19T16:05:31;10.00;99.90
74171;DHT22;62526;50.948;6.590;2023-02-19T16:08:15;10.00;99.90
74171;DHT22;62526;50.948;6.590;2023-02-19T16:10:52;9.90;99.90
74171;DHT22;62526;50.948;6.590;2023-02-19T16:13:21;9.90;99.90
74171;DHT22;62526;50.948;6.590;2023-02-19T16:16:22;9.90;99.90
74171;DHT22;62526;50.948;6.590;2023-02-19T16:18:32;9.90;99.90
74171;DHT22;62526;50.948;6.590;2023-02-19T16:20:59;9.90;99.90
74171;DHT22;62526;50.948;6.590;2023-02-19T16:23:26;9.90;99.90
74171;DHT22;62526;50.948;6.590;2023-02-19T16:26:00;9.80;99.90
74171;DHT22;62526;50.948;6.590;2023-02-19T16:28:27;9.80;99.90
74171;DHT22;62526;50.948;6.590;2023-02-19T16:30:56;9.80;99.90
74171;DHT22;62526;50.948;6.590;2023-02-19T16:33:37;9.80;99.90
74171;DHT22;62526;50.948;6.590;2023-02-19T16:36:15;9.80;99.90
74171;DHT22;62526;50.948;6.590;2023-02-19T16:38:56;9.90;99.90
74171;DHT22;62526;50.948;6.590;2023-02-19T16:41:11;9.80;99.90
74171;DHT22;62526;50.948;6.590;2023-02-19T16:43:41;9.70;99.90
74171;DHT22;62526;50.948;6.590;2023-02-19T16:46:08;9.70;99.90
74171;DHT22;62526;50.948;6.590;2023-02-19T16:48:34;9.60;99.90
74171;DHT22;62526;50.948;6.590;2023-02-19T16:51:03;9.60;99.90
74171;DHT22;62526;50.948;6.590;2023-02-19T16:53:28;9.50;99.90
74171;DHT22;62526;50.948;6.590;2023-02-19T16:55:55;9.60;99.90
74171;DHT22;62526;50.948;6.590;2023-02-19T16:58:21;9.60;99.90
74171;DHT22;62526;50.948;6.590;2023-02-19T17:00:49;9.70;99.90
74171;DHT22;62526;50.948;6.590;2023-02-19T17:03:21;9.70;99.90
74171;DHT22;62526;50.948;6.590;2023-02-19T17:05:55;9.70;99.90
74171;DHT22;62526;50.948;6.590;2023-02-19T17:08:45;9.90;99.90
74171;DHT22;62526;50.948;6.590;2023-02-19T17:11:16;9.80;99.90
74171;DHT22;62526;50.948;6.590;2023-02-19T17:13:43;9.80;99.90
74171;DHT22;62526;50.948;6.590;2023-02-19T17:16:16;9.90;99.90
74171;DHT22;62526;50.948;6.590;2023-02-19T17:18:42;9.80;99.90
74171;DHT22;62526;50.948;6.590;2023-02-19T17:21:20;9.80;99.90
74171;DHT22;62526;50.948;6.590;2023-02-19T17:23:48;9.80;99.90
74171;DHT22;62526;50.948;6.590;2023-02-19T17:26:16;9.80;99.90
74171;DHT22;62526;50.948;6.590;2023-02-19T17:28:42;9.70;99.90
74171;DHT22;62526;50.948;6.590;2023-02-19T17:31:09;9.70;99.90
74171;DHT22;62526;50.948;6.590;2023-02-19T17:33:35;9.70;99.90
74171;DHT22;62526;50.948;6.590;2023-02-19T17:36:02;9.70;99.90
74171;DHT22;62526;50.948;6.590;2023-02-19T17:38:29;9.70;99.90
74171;DHT22;62526;50.948;6.590;2023-02-19T17:40:55;9.70;99.90
74171;DHT22;62526;50.948;6.590;2023-02-19T17:43:22;9.60;99.90
74171;DHT22;62526;50.948;6.590;2023-02-19T17:45:49;9.60;99.90
74171;DHT22;62526;50.948;6.590;2023-02-19T17:48:16;9.60;99.90
74171;DHT22;62526;50.948;6.590;2023-02-19T17:53:29;9.50;99.90
74171;DHT22;62526;50.948;6.590;2023-02-19T17:55:55;9.50;99.90
74171;DHT22;62526;50.948;6.590;2023-02-19T17:58:34;9.50;99.90
74171;DHT22;62526;50.948;6.590;2023-02-19T18:04:09;9.50;99.90
74171;DHT22;62526;50.948;6.590;2023-02-19T18:06:38;9.50;99.90
74171;DHT22;62526;50.948;6.590;2023-02-19T18:09:06;9.50;99.90
74171;DHT22;62526;50.948;6.590;2023-02-19T18:11:33;9.50;99.90
74171;DHT22;62526;50.948;6.590;2023-02-19T18:14:00;9.50;99.90
74171;DHT22;62526;50.948;6.590;2023-02-19T18:16:28;9.50;99.90
74171;DHT22;62526;50.948;6.590;2023-02-19T18:18:54;9.40;99.90
74171;DHT22;62526;50.948;6.590;2023-02-19T18:21:22;9.40;99.90